createdAt,value
2019-02-22T00:01:08.388Z,70.14
2019-02-22T00:03:42.661Z,70.14
2019-02-22T00:06:17.741Z,70.18
2019-02-22T00:08:51.996Z,70.19
2019-02-22T00:11:26.290Z,70.18
2019-02-22T00:14:00.597Z,70.17
2019-02-22T00:16:34.847Z,70.19
2019-02-22T00:19:09.184Z,70.20
2019-02-22T00:21:43.284Z,70.18
2019-02-22T00:24:17.416Z,70.19
2019-02-22T00:26:52.448Z,70.15
2019-02-22T00:29:26.695Z,70.16
2019-02-22T00:32:01.124Z,70.17
2019-02-22T00:34:35.278Z,70.15
2019-02-22T00:37:09.489Z,70.12
2019-02-22T00:39:43.679Z,70.09
2019-02-22T00:42:17.843Z,70.07
2019-02-22T00:44:52.224Z,70.09
2019-02-22T00:47:26.565Z,70.07
2019-02-22T00:50:00.505Z,70.07
2019-02-22T00:52:35.608Z,70.06
2019-02-22T00:55:09.740Z,70.01
2019-02-22T00:57:44.021Z,70.04
2019-02-22T01:00:18.424Z,70.04
2019-02-22T01:02:52.645Z,69.99
2019-02-22T01:05:26.917Z,70.00
2019-02-22T01:08:01.317Z,70.01
2019-02-22T01:10:35.621Z,69.97
2019-02-22T01:13:09.904Z,69.98
2019-02-22T01:15:44.191Z,69.96
2019-02-22T01:18:18.452Z,69.99
2019-02-22T01:20:54.633Z,69.97
2019-02-22T01:23:28.661Z,69.95
2019-02-22T01:26:03.094Z,69.96
2019-02-22T01:28:37.250Z,69.96
2019-02-22T01:31:11.664Z,69.96
2019-02-22T01:33:45.899Z,69.93
2019-02-22T01:36:20.332Z,69.95
2019-02-22T01:38:54.449Z,69.93
2019-02-22T01:41:28.945Z,69.90
2019-02-22T01:44:03.002Z,69.92
2019-02-22T01:46:37.343Z,69.93
2019-02-22T01:49:11.385Z,69.87
2019-02-22T01:51:45.603Z,69.81
2019-02-22T01:54:19.797Z,69.78
2019-02-22T01:56:54.732Z,69.78
2019-02-22T01:59:28.923Z,69.75
2019-02-22T02:02:03.390Z,69.69
2019-02-22T02:04:37.620Z,69.70
2019-02-22T02:07:30.225Z,69.65
2019-02-22T02:10:04.915Z,69.61
2019-02-22T02:12:39.256Z,69.63
2019-02-22T02:15:13.630Z,69.62
2019-02-22T02:17:49.387Z,69.58
2019-02-22T02:20:23.659Z,69.59
2019-02-22T02:22:57.993Z,69.62
2019-02-22T02:25:32.333Z,69.60
2019-02-22T02:28:06.724Z,69.58
2019-02-22T02:30:40.941Z,69.55
2019-02-22T02:33:15.326Z,69.55
2019-02-22T02:35:50.537Z,69.50
2019-02-22T02:38:25.822Z,69.41
2019-02-22T02:41:09.787Z,69.38
2019-02-22T02:43:36.180Z,69.29
2019-02-22T02:46:10.441Z,69.25
2019-02-22T02:48:44.481Z,69.27
2019-02-22T02:51:18.727Z,69.21
2019-02-22T02:53:53.214Z,68.94
2019-02-22T02:56:27.485Z,68.66
2019-02-22T02:59:01.836Z,68.53
2019-02-22T03:01:35.977Z,68.36
2019-02-22T03:04:10.029Z,68.31
2019-02-22T03:06:51.780Z,68.36
2019-02-22T03:09:26.926Z,68.30
2019-02-22T03:12:01.032Z,68.30
2019-02-22T03:14:35.439Z,68.41
2019-02-22T03:17:09.615Z,68.46
2019-02-22T03:19:43.731Z,68.48
2019-02-22T03:22:18.074Z,68.49
2019-02-22T03:24:53.687Z,68.55
2019-02-22T03:27:28.877Z,68.53
2019-02-22T03:30:02.980Z,68.53
2019-02-22T03:32:37.555Z,68.50
2019-02-22T03:35:12.324Z,68.53
2019-02-22T03:37:47.060Z,68.50
2019-02-22T03:40:21.167Z,68.53
2019-02-22T03:42:55.272Z,68.54
2019-02-22T03:45:30.842Z,68.60
2019-02-22T03:48:05.277Z,67.70
2019-02-22T03:50:39.556Z,67.90
2019-02-22T03:53:20.638Z,67.49
2019-02-22T03:55:54.953Z,67.82
2019-02-22T03:58:29.265Z,67.66
2019-02-22T04:01:03.627Z,67.38
2019-02-22T04:03:37.666Z,67.67
2019-02-22T04:06:12.240Z,67.34
2019-02-22T04:08:46.537Z,67.38
2019-02-22T04:11:20.992Z,67.48
2019-02-22T04:13:55.117Z,67.66
2019-02-22T04:16:29.295Z,67.74
2019-02-22T04:19:03.653Z,68.01
2019-02-22T04:21:37.814Z,68.33
2019-02-22T04:24:12.034Z,68.56
2019-02-22T04:26:47.352Z,68.25
2019-02-22T04:29:21.799Z,68.04
2019-02-22T04:31:56.528Z,67.89
2019-02-22T04:34:30.543Z,68.26
2019-02-22T04:37:05.128Z,68.42
2019-02-22T04:39:39.146Z,68.58
2019-02-22T04:42:13.291Z,69.02
2019-02-22T04:44:47.686Z,69.28
2019-02-22T04:47:21.730Z,69.32
2019-02-22T04:49:55.958Z,69.22
2019-02-22T04:52:29.996Z,69.27
2019-02-22T04:55:04.193Z,69.20
2019-02-22T04:57:38.125Z,69.16
2019-02-22T05:00:12.765Z,69.13
2019-02-22T05:02:47.069Z,69.09
2019-02-22T05:05:21.244Z,69.16
2019-02-22T05:07:55.397Z,69.05
2019-02-22T05:10:29.672Z,69.25
2019-02-22T05:13:04.276Z,70.88
2019-02-22T05:15:38.681Z,70.41
2019-02-22T05:18:12.844Z,70.27
2019-02-22T05:20:48.586Z,69.96
2019-02-22T05:23:22.930Z,69.87
2019-02-22T05:25:57.239Z,69.54
2019-02-22T05:28:32.549Z,69.45
2019-02-22T05:31:06.836Z,69.12
2019-02-22T05:33:41.130Z,69.07
2019-02-22T05:36:15.595Z,69.10
2019-02-22T05:38:49.940Z,69.14
2019-02-22T05:41:24.170Z,69.18
2019-02-22T05:43:59.586Z,69.20
2019-02-22T05:46:33.687Z,69.18
2019-02-22T05:49:08.720Z,69.21
2019-02-22T05:51:42.966Z,69.18
2019-02-22T05:54:17.186Z,70.21
2019-02-22T05:56:55.192Z,71.17
2019-02-22T05:59:28.409Z,71.36
2019-02-22T06:02:02.748Z,70.26
2019-02-22T06:04:38.034Z,69.96
2019-02-22T06:07:14.435Z,69.52
2019-02-22T06:09:48.282Z,69.51
2019-02-22T06:12:33.915Z,69.74
2019-02-22T06:14:58.232Z,69.83
2019-02-22T06:17:32.550Z,70.08
2019-02-22T06:20:06.854Z,69.82
2019-02-22T06:22:42.044Z,69.82
2019-02-22T06:25:16.282Z,69.76
2019-02-22T06:27:50.605Z,69.63
2019-02-22T06:30:24.725Z,69.53
2019-02-22T06:32:58.709Z,69.60
2019-02-22T06:35:32.630Z,69.53
2019-02-22T06:38:07.070Z,69.51
2019-02-22T06:40:41.061Z,69.47
2019-02-22T06:43:15.125Z,69.50
2019-02-22T06:45:49.311Z,69.41
2019-02-22T06:48:23.587Z,69.40
2019-02-22T06:50:57.580Z,69.37
2019-02-22T06:53:32.860Z,69.43
2019-02-22T06:56:08.173Z,69.27
2019-02-22T06:58:43.709Z,69.21
2019-02-22T07:01:17.881Z,69.27
2019-02-22T07:03:51.882Z,69.25
2019-02-22T07:06:26.096Z,69.36
2019-02-22T07:09:00.218Z,69.35
2019-02-22T07:11:57.574Z,69.39
2019-02-22T07:14:31.954Z,69.36
2019-02-22T07:17:06.417Z,69.21
2019-02-22T07:19:40.500Z,69.31
2019-02-22T07:22:14.761Z,69.32
2019-02-22T07:24:48.955Z,69.28
2019-02-22T07:27:23.154Z,69.29
2019-02-22T07:29:57.225Z,69.27
2019-02-22T07:32:31.477Z,69.34
2019-02-22T07:35:05.714Z,69.34
2019-02-22T07:37:40.069Z,69.35
2019-02-22T07:40:15.289Z,69.32
2019-02-22T07:42:49.604Z,69.30
2019-02-22T07:45:23.826Z,69.22
2019-02-22T07:47:58.365Z,69.29
2019-02-22T07:50:32.326Z,69.25
2019-02-22T07:53:06.559Z,69.19
2019-02-22T07:55:40.805Z,69.24
2019-02-22T07:58:14.797Z,69.16
2019-02-22T08:00:48.823Z,69.25
2019-02-22T08:03:24.085Z,69.25
2019-02-22T08:05:58.093Z,69.19
2019-02-22T08:08:32.214Z,69.22
2019-02-22T08:11:06.572Z,69.23
2019-02-22T08:13:40.736Z,69.25
2019-02-22T08:16:14.662Z,69.22
2019-02-22T08:18:48.719Z,69.17
2019-02-22T08:21:24.281Z,69.13
2019-02-22T08:23:58.557Z,69.15
2019-02-22T08:26:33.805Z,69.14
2019-02-22T08:29:07.778Z,69.16
2019-02-22T08:31:42.858Z,69.22
2019-02-22T08:34:16.850Z,69.19
2019-02-22T08:36:51.092Z,69.13
2019-02-22T08:39:25.307Z,69.08
2019-02-22T08:41:59.693Z,69.04
2019-02-22T08:44:34.126Z,69.12
2019-02-22T08:47:08.462Z,69.05
2019-02-22T08:49:43.935Z,68.98
2019-02-22T08:52:18.337Z,69.01
2019-02-22T08:54:55.357Z,69.05
2019-02-22T08:57:30.906Z,69.01
2019-02-22T09:00:05.164Z,68.94
2019-02-22T09:02:40.848Z,68.94
2019-02-22T09:05:14.829Z,68.90
2019-02-22T09:07:49.203Z,68.93
2019-02-22T09:10:42.161Z,68.99
2019-02-22T09:13:43.123Z,68.93
2019-02-22T09:16:09.576Z,68.98
2019-02-22T09:18:44.548Z,68.95
2019-02-22T09:21:18.917Z,68.90
2019-02-22T09:23:53.261Z,68.95
2019-02-22T09:26:27.399Z,68.96
2019-02-22T09:29:02.872Z,68.90
2019-02-22T09:31:37.235Z,68.87
2019-02-22T09:34:11.619Z,68.86
2019-02-22T09:36:47.926Z,68.83
2019-02-22T09:39:22.044Z,68.88
2019-02-22T09:41:56.539Z,68.89
2019-02-22T09:44:32.239Z,68.88
2019-02-22T09:47:06.372Z,68.84
2019-02-22T09:49:40.688Z,68.76
2019-02-22T09:52:15.092Z,68.81
2019-02-22T09:54:49.447Z,68.81
2019-02-22T09:57:23.887Z,68.81
2019-02-22T09:59:57.925Z,68.88
2019-02-22T10:02:32.294Z,68.86
2019-02-22T10:05:06.715Z,68.77
2019-02-22T10:07:41.042Z,68.83
2019-02-22T10:10:15.347Z,68.77
2019-02-22T10:12:49.569Z,68.68
2019-02-22T10:15:24.057Z,68.68
2019-02-22T10:17:58.280Z,68.67
2019-02-22T10:20:33.424Z,68.63
2019-02-22T10:23:08.564Z,68.61
2019-02-22T10:25:43.791Z,68.56
2019-02-22T10:28:18.310Z,68.61
2019-02-22T10:30:52.548Z,68.58
2019-02-22T10:33:36.196Z,68.55
2019-02-22T10:36:02.703Z,68.46
2019-02-22T10:38:36.947Z,68.45
2019-02-22T10:41:10.942Z,68.43
2019-02-22T10:43:45.157Z,68.43
2019-02-22T10:46:22.000Z,68.36
2019-02-22T10:48:55.394Z,68.37
2019-02-22T10:51:29.480Z,68.34
2019-02-22T10:54:03.478Z,68.29
2019-02-22T10:56:39.323Z,68.29
2019-02-22T10:59:14.504Z,68.29
2019-02-22T11:01:49.782Z,68.22
2019-02-22T11:04:24.060Z,68.15
2019-02-22T11:06:58.149Z,68.15
2019-02-22T11:09:32.460Z,67.92
2019-02-22T11:12:06.751Z,67.96
2019-02-22T11:14:40.647Z,67.96
2019-02-22T11:17:14.808Z,68.01
2019-02-22T11:19:49.127Z,68.05
2019-02-22T11:22:23.473Z,68.02
2019-02-22T11:24:57.907Z,67.93
2019-02-22T11:27:31.951Z,67.84
2019-02-22T11:30:06.257Z,67.65
2019-02-22T11:32:41.076Z,67.55
2019-02-22T11:35:15.599Z,67.45
2019-02-22T11:37:49.771Z,67.59
2019-02-22T11:40:24.161Z,67.64
2019-02-22T11:42:59.004Z,67.62
2019-02-22T11:45:34.344Z,67.67
2019-02-22T11:48:09.597Z,67.62
2019-02-22T11:50:43.951Z,67.60
2019-02-22T11:53:18.219Z,67.59
2019-02-22T11:55:52.331Z,67.59
2019-02-22T11:58:26.934Z,67.49
2019-02-22T12:01:01.433Z,67.44
2019-02-22T12:03:35.767Z,67.47
2019-02-22T12:06:10.169Z,67.47
2019-02-22T12:08:45.345Z,67.46
2019-02-22T12:11:19.614Z,67.39
2019-02-22T12:13:54.033Z,67.48
2019-02-22T12:16:28.137Z,67.47
2019-02-22T12:19:04.166Z,67.39
2019-02-22T12:21:38.673Z,67.33
2019-02-22T12:24:15.127Z,67.30
2019-02-22T12:26:49.828Z,67.31
2019-02-22T12:29:24.236Z,67.19
2019-02-22T12:32:00.601Z,67.08
2019-02-22T12:34:34.615Z,67.10
2019-02-22T12:37:09.445Z,66.93
2019-02-22T12:39:43.755Z,66.79
2019-02-22T12:42:18.266Z,66.42
2019-02-22T12:45:02.470Z,66.52
2019-02-22T12:47:33.015Z,66.60
2019-02-22T12:50:07.273Z,66.64
2019-02-22T12:52:41.593Z,66.48
2019-02-22T12:55:15.993Z,66.31
2019-02-22T12:57:50.203Z,66.61
2019-02-22T13:00:26.377Z,66.85
2019-02-22T13:03:02.595Z,66.51
2019-02-22T13:05:36.893Z,66.56
2019-02-22T13:08:13.580Z,66.50
2019-02-22T13:10:47.915Z,66.50
2019-02-22T13:13:22.207Z,66.17
2019-02-22T13:15:56.455Z,66.39
2019-02-22T13:18:31.380Z,66.37
2019-02-22T13:21:05.542Z,66.42
2019-02-22T13:23:39.701Z,66.45
2019-02-22T13:26:13.816Z,66.65
2019-02-22T13:28:48.081Z,66.45
2019-02-22T13:31:29.784Z,66.51
2019-02-22T13:33:58.131Z,66.58
2019-02-22T13:36:33.249Z,66.53
2019-02-22T13:39:08.396Z,66.23
2019-02-22T13:41:43.171Z,66.36
2019-02-22T13:44:17.323Z,66.74
2019-02-22T13:46:51.535Z,66.69
2019-02-22T13:49:25.443Z,66.76
2019-02-22T13:51:59.795Z,66.78
2019-02-22T13:54:34.164Z,66.71
2019-02-22T13:57:08.340Z,66.73
2019-02-22T13:59:42.746Z,66.65
2019-02-22T14:02:16.978Z,66.66
2019-02-22T14:04:52.169Z,66.65
2019-02-22T14:07:28.307Z,66.54
2019-02-22T14:10:07.268Z,66.79
2019-02-22T14:12:46.067Z,66.40
2019-02-22T14:15:24.176Z,66.88
2019-02-22T14:18:00.174Z,67.02
2019-02-22T14:20:34.430Z,66.68
2019-02-22T14:23:08.390Z,66.38
2019-02-22T14:25:42.842Z,66.83
2019-02-22T14:28:17.147Z,66.93
2019-02-22T14:30:51.212Z,67.06
2019-02-22T14:33:25.410Z,66.87
2019-02-22T14:35:59.498Z,66.88
2019-02-22T14:38:33.702Z,66.59
2019-02-22T14:41:08.109Z,66.76
2019-02-22T14:43:42.207Z,66.61
2019-02-22T14:46:25.510Z,66.77
2019-02-22T14:48:53.038Z,66.94
2019-02-22T14:51:27.072Z,66.93
2019-02-22T14:54:01.440Z,66.85
2019-02-22T14:56:36.708Z,66.99
2019-02-22T14:59:10.781Z,66.85
2019-02-22T15:01:44.947Z,66.97
2019-02-22T15:04:19.301Z,67.03
2019-02-22T15:06:55.727Z,66.85
2019-02-22T15:09:29.405Z,66.99
2019-02-22T15:12:03.535Z,66.96
2019-02-22T15:14:37.647Z,66.99
2019-02-22T15:17:22.595Z,66.85
2019-02-22T15:19:56.830Z,66.70
2019-02-22T15:22:31.661Z,66.86
2019-02-22T15:25:06.049Z,66.32
2019-02-22T15:27:45.253Z,66.73
2019-02-22T15:30:19.572Z,66.68
2019-02-22T15:32:53.686Z,66.53
2019-02-22T15:35:27.732Z,66.51
2019-02-22T15:38:01.802Z,66.55
2019-02-22T15:40:36.401Z,66.58
2019-02-22T15:43:10.451Z,66.17
2019-02-22T15:45:47.050Z,66.28
2019-02-22T15:48:20.280Z,66.43
2019-02-22T15:50:54.241Z,66.20
2019-02-22T15:53:28.211Z,66.21
2019-02-22T15:56:02.431Z,66.08
2019-02-22T15:58:36.748Z,66.23
2019-02-22T16:01:10.973Z,66.24
2019-02-22T16:03:55.660Z,66.10
2019-02-22T16:06:32.282Z,66.29
2019-02-22T16:09:07.444Z,66.22
2019-02-22T16:11:43.359Z,66.30
2019-02-22T16:14:17.607Z,65.67
2019-02-22T16:16:52.782Z,65.79
2019-02-22T16:19:26.790Z,65.74
2019-02-22T16:22:01.286Z,65.87
2019-02-22T16:24:35.537Z,65.70
2019-02-22T16:27:09.745Z,65.66
2019-02-22T16:29:43.843Z,65.46
2019-02-22T16:32:18.019Z,65.53
2019-02-22T16:34:53.280Z,65.66
2019-02-22T16:37:27.618Z,65.50
2019-02-22T16:40:01.594Z,65.73
2019-02-22T16:42:37.106Z,65.70
2019-02-22T16:45:12.132Z,65.78
2019-02-22T16:47:46.506Z,65.87
2019-02-22T16:50:21.847Z,65.79
2019-02-22T16:52:57.212Z,65.79
2019-02-22T16:55:31.624Z,65.80
2019-02-22T16:58:05.965Z,65.84
2019-02-22T17:00:40.301Z,65.78
2019-02-22T17:03:14.726Z,65.71
2019-02-22T17:05:49.129Z,65.53
2019-02-22T17:08:23.249Z,65.46
2019-02-22T17:10:58.295Z,65.64
2019-02-22T17:13:32.710Z,65.62
2019-02-22T17:16:06.773Z,65.63
2019-02-22T17:18:41.779Z,65.65
2019-02-22T17:21:16.243Z,65.63
2019-02-22T17:23:50.695Z,65.75
2019-02-22T17:26:24.850Z,65.49
2019-02-22T17:28:59.283Z,65.53
2019-02-22T17:31:33.369Z,65.37
2019-02-22T17:34:07.896Z,65.23
2019-02-22T17:36:42.065Z,65.35
2019-02-22T17:39:16.480Z,65.14
2019-02-22T17:41:50.880Z,65.34
2019-02-22T17:44:24.860Z,65.31
2019-02-22T17:46:59.071Z,65.37
2019-02-22T17:49:34.284Z,65.31
2019-02-22T17:52:08.483Z,65.31
2019-02-22T17:54:42.501Z,65.37
2019-02-22T17:57:16.864Z,65.30
2019-02-22T17:59:51.067Z,65.27
2019-02-22T18:02:25.075Z,65.36
2019-02-22T18:04:59.350Z,65.21
2019-02-22T18:07:33.434Z,65.33
2019-02-22T18:10:07.921Z,64.98
2019-02-22T18:12:42.338Z,65.12
2019-02-22T18:15:16.761Z,65.06
2019-02-22T18:17:50.892Z,65.08
2019-02-22T18:20:25.345Z,65.04
2019-02-22T18:22:59.522Z,64.82
2019-02-22T18:25:33.760Z,64.77
2019-02-22T18:28:08.248Z,64.75
2019-02-22T18:30:42.498Z,64.52
2019-02-22T18:33:16.786Z,64.47
2019-02-22T18:35:51.021Z,64.42
2019-02-22T18:38:25.086Z,64.52
2019-02-22T18:40:59.220Z,64.53
2019-02-22T18:43:33.564Z,64.49
2019-02-22T18:46:07.956Z,64.28
2019-02-22T18:48:43.177Z,64.50
2019-02-22T18:51:18.120Z,64.42
2019-02-22T18:53:52.123Z,64.06
2019-02-22T18:56:26.398Z,64.44
2019-02-22T18:59:01.773Z,64.38
2019-02-22T19:01:35.964Z,64.28
2019-02-22T19:04:10.301Z,64.34
2019-02-22T19:06:45.427Z,64.31
2019-02-22T19:09:20.167Z,64.27
2019-02-22T19:11:54.235Z,63.90
2019-02-22T19:14:28.936Z,63.93
2019-02-22T19:17:03.086Z,64.11
2019-02-22T19:19:38.537Z,63.90
2019-02-22T19:22:12.766Z,63.99
2019-02-22T19:24:47.112Z,63.94
2019-02-22T19:27:21.278Z,63.93
2019-02-22T19:29:55.538Z,63.99
2019-02-22T19:32:29.450Z,64.02
2019-02-22T19:35:03.776Z,63.95
2019-02-22T19:37:38.015Z,63.92
2019-02-22T19:40:14.645Z,63.94
2019-02-22T19:42:48.711Z,63.73
2019-02-22T19:45:23.282Z,63.69
2019-02-22T19:47:57.416Z,63.65
2019-02-22T19:50:41.059Z,63.65
2019-02-22T19:53:08.279Z,63.50
2019-02-22T19:55:42.868Z,63.51
2019-02-22T19:58:17.151Z,63.37
2019-02-22T20:00:52.118Z,63.38
2019-02-22T20:03:26.267Z,63.38
2019-02-22T20:06:00.486Z,63.38
2019-02-22T20:08:36.082Z,63.58
2019-02-22T20:11:10.308Z,63.74
2019-02-22T20:13:46.417Z,63.73
2019-02-22T20:16:20.561Z,63.54
2019-02-22T20:18:54.600Z,63.84
2019-02-22T20:21:28.698Z,63.79
2019-02-22T20:24:03.174Z,63.99
2019-02-22T20:26:37.275Z,63.76
2019-02-22T20:29:11.717Z,63.91
2019-02-22T20:31:45.875Z,63.92
2019-02-22T20:34:19.874Z,63.57
2019-02-22T20:36:54.109Z,63.48
2019-02-22T20:39:29.221Z,63.53
2019-02-22T20:42:03.495Z,63.67
2019-02-22T20:44:39.776Z,63.45
2019-02-22T20:47:14.034Z,63.53
2019-02-22T20:49:48.000Z,63.73
2019-02-22T20:52:22.110Z,63.71
2019-02-22T20:54:56.469Z,63.58
2019-02-22T20:57:30.656Z,63.58
2019-02-22T21:00:04.943Z,63.58
2019-02-22T21:02:40.007Z,63.31
2019-02-22T21:05:14.409Z,63.42
2019-02-22T21:07:48.632Z,63.04
2019-02-22T21:10:22.687Z,63.21
2019-02-22T21:12:56.921Z,63.22
2019-02-22T21:15:30.954Z,63.08
2019-02-22T21:18:15.661Z,63.07
2019-02-22T21:20:41.515Z,62.86
2019-02-22T21:23:15.953Z,63.00
2019-02-22T21:25:50.070Z,62.76
2019-02-22T21:28:24.229Z,62.99
2019-02-22T21:30:58.529Z,62.89
2019-02-22T21:33:32.731Z,62.86
2019-02-22T21:36:08.166Z,62.82
2019-02-22T21:38:43.611Z,62.88
2019-02-22T21:41:17.835Z,62.49
2019-02-22T21:43:52.243Z,62.81
2019-02-22T21:46:28.751Z,62.81
2019-02-22T21:49:02.345Z,62.82
2019-02-22T21:51:36.547Z,62.77
2019-02-22T21:54:10.866Z,62.78
2019-02-22T21:56:45.163Z,62.68
2019-02-22T21:59:19.391Z,62.66
2019-02-22T22:01:53.654Z,62.52
2019-02-22T22:04:28.883Z,62.45
2019-02-22T22:07:03.113Z,62.52
2019-02-22T22:12:08.218Z,62.36
2019-02-22T22:14:42.531Z,62.51
2019-02-22T22:17:16.976Z,62.43
2019-02-22T22:19:51.227Z,62.16
2019-02-22T22:22:25.501Z,62.36
2019-02-22T22:25:01.746Z,62.13
2019-02-22T22:27:37.617Z,62.02
2019-02-22T22:30:12.752Z,62.32
2019-02-22T22:32:46.979Z,62.06
2019-02-22T22:35:21.294Z,62.23
2019-02-22T22:37:55.464Z,62.06
2019-02-22T22:40:29.710Z,62.15
2019-02-22T22:43:04.806Z,62.08
2019-02-22T22:45:39.242Z,62.06
2019-02-22T22:48:13.652Z,62.02
2019-02-22T22:50:47.745Z,62.18
2019-02-22T22:53:22.050Z,62.00
2019-02-22T22:55:56.180Z,61.96
2019-02-22T22:58:30.326Z,61.78
2019-02-22T23:01:31.139Z,61.88
2019-02-22T23:04:05.513Z,61.96
2019-02-22T23:06:39.572Z,61.82
2019-02-22T23:09:19.290Z,61.92
2019-02-22T23:11:54.077Z,61.87
2019-02-22T23:14:28.378Z,61.81
2019-02-22T23:17:02.493Z,61.72
2019-02-22T23:19:36.731Z,61.63
2019-02-22T23:22:10.935Z,61.56
2019-02-22T23:24:45.477Z,61.51
2019-02-22T23:27:19.537Z,61.73
2019-02-22T23:29:54.872Z,61.73
2019-02-22T23:32:29.072Z,61.71
2019-02-22T23:35:03.249Z,61.71
2019-02-22T23:37:38.512Z,61.62
2019-02-22T23:40:12.663Z,61.53
2019-02-22T23:42:46.745Z,61.45
2019-02-22T23:45:20.893Z,61.48
2019-02-22T23:47:55.153Z,61.43
2019-02-22T23:50:29.553Z,61.26
2019-02-22T23:53:03.691Z,61.32
2019-02-22T23:55:37.881Z,61.29
2019-02-22T23:58:12.093Z,61.28
